WAT5608 PHOG-PHMK
Flight info
| Callsign | WAT5608 |
|---|---|
| Flight time | 0h 21m |
| Altitude | 3500 |
| Route | 210155N1563505W 210216N1565314W 210611N1570555W |
| Aircraft | P28R/L-SDFY/S |
Departure
| Time | 2026-04-30 01:19 |
|---|---|
| Airport | Kahului International Airport (PHOG) |
Arrival
| Time | 2026-04-30 01:41 |
|---|---|
| Airport | Molokai Airport (PHMK) |
| Time | Latitude | Longitude | Altitude | Speed | Heading |
|---|---|---|---|---|---|
| 2026-04-30 00:58 | 20.89923 | -156.42662 | 39 ft | 0 kts | 34° |
| 2026-04-30 01:12 | 20.89927 | -156.42653 | 39 ft | 3 kts | 59° |
| 2026-04-30 01:13 | 20.89956 | -156.42650 | 39 ft | 7 kts | 311° |
| 2026-04-30 01:13 | 20.89971 | -156.42679 | 39 ft | 5 kts | 294° |
| 2026-04-30 01:13 | 20.89940 | -156.42721 | 39 ft | 11 kts | 209° |
| 2026-04-30 01:13 | 20.89868 | -156.42775 | 39 ft | 14 kts | 214° |
| 2026-04-30 01:14 | 20.89793 | -156.42829 | 39 ft | 12 kts | 216° |
| 2026-04-30 01:14 | 20.89725 | -156.42883 | 39 ft | 12 kts | 217° |
| 2026-04-30 01:14 | 20.89657 | -156.42932 | 39 ft | 12 kts | 213° |
| 2026-04-30 01:14 | 20.89583 | -156.42985 | 39 ft | 13 kts | 217° |
| 2026-04-30 01:15 | 20.89508 | -156.43046 | 39 ft | 14 kts | 214° |
| 2026-04-30 01:15 | 20.89432 | -156.43105 | 39 ft | 11 kts | 230° |
| 2026-04-30 01:15 | 20.89419 | -156.43150 | 40 ft | 0 kts | 262° |
| 2026-04-30 01:16 | 20.89419 | -156.43155 | 40 ft | 3 kts | 263° |
| 2026-04-30 01:17 | 20.89413 | -156.43186 | 40 ft | 6 kts | 258° |
| 2026-04-30 01:17 | 20.89416 | -156.43237 | 41 ft | 8 kts | 317° |
| 2026-04-30 01:17 | 20.89457 | -156.43230 | 41 ft | 5 kts | 38° |
| 2026-04-30 01:17 | 20.89493 | -156.43202 | 41 ft | 20 kts | 33° |
| 2026-04-30 01:18 | 20.89708 | -156.43034 | 40 ft | 53 kts | 44° |
| 2026-04-30 01:18 | 20.90023 | -156.42805 | 132 ft | 55 kts | 30° |
| 2026-04-30 01:18 | 20.90384 | -156.42575 | 218 ft | 69 kts | 35° |
| 2026-04-30 01:18 | 20.90803 | -156.42271 | 383 ft | 77 kts | 33° |
| 2026-04-30 01:19 | 20.91358 | -156.42198 | 465 ft | 92 kts | 352° |
| 2026-04-30 01:19 | 20.91922 | -156.42541 | 725 ft | 90 kts | 330° |
| 2026-04-30 01:19 | 20.92341 | -156.43114 | 850 ft | 106 kts | 315° |
| 2026-04-30 01:19 | 20.92675 | -156.43768 | 1134 ft | 100 kts | 303° |
| 2026-04-30 01:20 | 20.92991 | -156.44482 | 1186 ft | 109 kts | 304° |
| 2026-04-30 01:20 | 20.93339 | -156.45198 | 1318 ft | 109 kts | 313° |
| 2026-04-30 01:20 | 20.93759 | -156.45870 | 1507 ft | 107 kts | 309° |
| 2026-04-30 01:20 | 20.94159 | -156.46563 | 1642 ft | 112 kts | 308° |
| 2026-04-30 01:21 | 20.94553 | -156.47235 | 2026 ft | 100 kts | 315° |
| 2026-04-30 01:21 | 20.94979 | -156.47913 | 2110 ft | 123 kts | 319° |
| 2026-04-30 01:21 | 20.95540 | -156.48696 | 2123 ft | 140 kts | 314° |
| 2026-04-30 01:21 | 20.96149 | -156.49547 | 2077 ft | 146 kts | 316° |
| 2026-04-30 01:22 | 20.96767 | -156.50402 | 2040 ft | 147 kts | 316° |
| 2026-04-30 01:22 | 20.97409 | -156.51264 | 2012 ft | 147 kts | 317° |
| 2026-04-30 01:22 | 20.98036 | -156.52134 | 2006 ft | 148 kts | 315° |
| 2026-04-30 01:22 | 20.98685 | -156.52995 | 2015 ft | 150 kts | 317° |
| 2026-04-30 01:23 | 20.99321 | -156.53874 | 1999 ft | 148 kts | 318° |
| 2026-04-30 01:23 | 20.99918 | -156.54760 | 2019 ft | 148 kts | 314° |
| 2026-04-30 01:23 | 21.00565 | -156.55626 | 2017 ft | 146 kts | 315° |
| 2026-04-30 01:23 | 21.01155 | -156.56489 | 2020 ft | 146 kts | 315° |
| 2026-04-30 01:24 | 21.01536 | -156.57546 | 2015 ft | 156 kts | 288° |
| 2026-04-30 01:24 | 21.01533 | -156.58711 | 1991 ft | 159 kts | 272° |
| 2026-04-30 01:24 | 21.01521 | -156.59859 | 2022 ft | 150 kts | 276° |
| 2026-04-30 01:24 | 21.01572 | -156.60977 | 2023 ft | 147 kts | 278° |
| 2026-04-30 01:25 | 21.01637 | -156.62041 | 2006 ft | 144 kts | 279° |
| 2026-04-30 01:25 | 21.01706 | -156.63112 | 1969 ft | 142 kts | 280° |
| 2026-04-30 01:25 | 21.01734 | -156.64136 | 1928 ft | 137 kts | 280° |
| 2026-04-30 01:25 | 21.01757 | -156.65155 | 1968 ft | 138 kts | 279° |
| 2026-04-30 01:26 | 21.01789 | -156.66184 | 1992 ft | 139 kts | 278° |
| 2026-04-30 01:26 | 21.01845 | -156.67220 | 1998 ft | 141 kts | 280° |
| 2026-04-30 01:26 | 21.01894 | -156.68271 | 1993 ft | 141 kts | 279° |
| 2026-04-30 01:26 | 21.01950 | -156.69322 | 1996 ft | 142 kts | 280° |
| 2026-04-30 01:27 | 21.01991 | -156.70377 | 1990 ft | 142 kts | 278° |
| 2026-04-30 01:27 | 21.02048 | -156.71429 | 2001 ft | 143 kts | 280° |
| 2026-04-30 01:27 | 21.02096 | -156.72500 | 2005 ft | 145 kts | 279° |
| 2026-04-30 01:27 | 21.02150 | -156.73584 | 2003 ft | 145 kts | 279° |
| 2026-04-30 01:28 | 21.02203 | -156.74658 | 2005 ft | 144 kts | 279° |
| 2026-04-30 01:28 | 21.02257 | -156.75731 | 2004 ft | 145 kts | 279° |
| 2026-04-30 01:28 | 21.02313 | -156.76805 | 1971 ft | 144 kts | 279° |
| 2026-04-30 01:28 | 21.02365 | -156.77884 | 1970 ft | 146 kts | 279° |
| 2026-04-30 01:29 | 21.02426 | -156.78974 | 1960 ft | 147 kts | 279° |
| 2026-04-30 01:29 | 21.02491 | -156.80069 | 1979 ft | 148 kts | 279° |
| 2026-04-30 01:29 | 21.02563 | -156.81170 | 1989 ft | 148 kts | 279° |
| 2026-04-30 01:29 | 21.02633 | -156.82274 | 1984 ft | 149 kts | 279° |
| 2026-04-30 01:30 | 21.02696 | -156.83384 | 1962 ft | 149 kts | 280° |
| 2026-04-30 01:30 | 21.02746 | -156.84483 | 1952 ft | 147 kts | 279° |
| 2026-04-30 01:30 | 21.02809 | -156.85570 | 1955 ft | 145 kts | 279° |
| 2026-04-30 01:30 | 21.02871 | -156.86636 | 1978 ft | 146 kts | 279° |
| 2026-04-30 01:31 | 21.02930 | -156.87731 | 1973 ft | 147 kts | 279° |
| 2026-04-30 01:31 | 21.02983 | -156.88825 | 1976 ft | 147 kts | 279° |
| 2026-04-30 01:31 | 21.03056 | -156.89910 | 1928 ft | 145 kts | 278° |
| 2026-04-30 01:31 | 21.03133 | -156.90983 | 1941 ft | 145 kts | 279° |
| 2026-04-30 01:32 | 21.03206 | -156.92061 | 1951 ft | 146 kts | 279° |
| 2026-04-30 01:32 | 21.03278 | -156.93143 | 1955 ft | 145 kts | 278° |
| 2026-04-30 01:32 | 21.03363 | -156.94210 | 1932 ft | 142 kts | 279° |
| 2026-04-30 01:32 | 21.03443 | -156.95256 | 1928 ft | 139 kts | 279° |
| 2026-04-30 01:33 | 21.03513 | -156.96282 | 1934 ft | 137 kts | 279° |
| 2026-04-30 01:33 | 21.03581 | -156.97295 | 1961 ft | 138 kts | 279° |
| 2026-04-30 01:33 | 21.03656 | -156.98330 | 1959 ft | 140 kts | 279° |
| 2026-04-30 01:33 | 21.03743 | -156.99379 | 1958 ft | 142 kts | 279° |
| 2026-04-30 01:34 | 21.03829 | -157.00430 | 1943 ft | 140 kts | 278° |
| 2026-04-30 01:34 | 21.04099 | -157.01387 | 1942 ft | 133 kts | 305° |
| 2026-04-30 01:34 | 21.04670 | -157.02155 | 1947 ft | 131 kts | 314° |
| 2026-04-30 01:34 | 21.05190 | -157.02954 | 1933 ft | 131 kts | 310° |
| 2026-04-30 01:35 | 21.05677 | -157.03775 | 1938 ft | 131 kts | 308° |
| 2026-04-30 01:35 | 21.06157 | -157.04610 | 1947 ft | 132 kts | 309° |
| 2026-04-30 01:35 | 21.06635 | -157.05458 | 1951 ft | 134 kts | 308° |
| 2026-04-30 01:35 | 21.07120 | -157.06298 | 1956 ft | 135 kts | 308° |
| 2026-04-30 01:36 | 21.07621 | -157.07158 | 1955 ft | 137 kts | 308° |
| 2026-04-30 01:36 | 21.08128 | -157.08029 | 1954 ft | 138 kts | 308° |
| 2026-04-30 01:36 | 21.08640 | -157.08903 | 1952 ft | 139 kts | 308° |
| 2026-04-30 01:36 | 21.09163 | -157.09796 | 2001 ft | 140 kts | 308° |
| 2026-04-30 01:37 | 21.09663 | -157.10658 | 1996 ft | 129 kts | 308° |
| 2026-04-30 01:37 | 21.10089 | -157.11421 | 1985 ft | 115 kts | 308° |
| 2026-04-30 01:37 | 21.10473 | -157.12140 | 2009 ft | 106 kts | 304° |
| 2026-04-30 01:37 | 21.10919 | -157.12702 | 1978 ft | 100 kts | 335° |
| 2026-04-30 01:38 | 21.11511 | -157.12939 | 1999 ft | 82 kts | 359° |
| 2026-04-30 01:38 | 21.12085 | -157.12925 | 1711 ft | 84 kts | 14° |
| 2026-04-30 01:38 | 21.12652 | -157.12793 | 1514 ft | 83 kts | 26° |
| 2026-04-30 01:38 | 21.13147 | -157.12605 | 1451 ft | 75 kts | 30° |
| 2026-04-30 01:39 | 21.13645 | -157.12402 | 1026 ft | 81 kts | 34° |
| 2026-04-30 01:39 | 21.13981 | -157.11947 | 781 ft | 72 kts | 64° |
| 2026-04-30 01:39 | 21.14200 | -157.11497 | 677 ft | 63 kts | 56° |
| 2026-04-30 01:39 | 21.14434 | -157.11141 | 515 ft | 60 kts | 60° |
| 2026-04-30 01:40 | 21.14545 | -157.10884 | 544 ft | 54 kts | 59° |
| 2026-04-30 01:40 | 21.14705 | -157.10547 | 527 ft | 52 kts | 66° |
| 2026-04-30 01:40 | 21.14894 | -157.10167 | 483 ft | 65 kts | 48° |
| 2026-04-30 01:40 | 21.15153 | -157.09746 | 441 ft | 65 kts | 55° |
| 2026-04-30 01:41 | 21.15311 | -157.09452 | 441 ft | 16 kts | 61° |
| 2026-04-30 01:41 | 21.15384 | -157.09326 | 445 ft | 23 kts | 59° |
| 2026-04-30 01:41 | 21.15442 | -157.09283 | 446 ft | 9 kts | 326° |
| 2026-04-30 01:41 | 21.15461 | -157.09319 | 438 ft | 10 kts | 249° |
| 2026-04-30 01:42 | 21.15453 | -157.09387 | 439 ft | 9 kts | 327° |
| 2026-04-30 01:42 | 21.15470 | -157.09419 | 438 ft | 0 kts | 231° |